sensor_id;sensor_type;location;lat;lon;timestamp;P1;durP1;ratioP1;P2;durP2;ratioP2
72406;SDS011;60396;47.550;18.828;2023-04-29T00:00:15;13.43;;;4.00;;
72406;SDS011;60396;47.550;18.828;2023-04-29T00:02:44;15.15;;;3.70;;
72406;SDS011;60396;47.550;18.828;2023-04-29T00:05:12;11.50;;;3.90;;
72406;SDS011;60396;47.550;18.828;2023-04-29T00:07:40;11.52;;;3.50;;
72406;SDS011;60396;47.550;18.828;2023-04-29T00:10:09;14.75;;;4.40;;
72406;SDS011;60396;47.550;18.828;2023-04-29T00:12:40;15.57;;;4.90;;
72406;SDS011;60396;47.550;18.828;2023-04-29T00:15:08;13.57;;;4.10;;
72406;SDS011;60396;47.550;18.828;2023-04-29T00:17:37;13.23;;;3.80;;
72406;SDS011;60396;47.550;18.828;2023-04-29T00:20:05;14.32;;;4.22;;
72406;SDS011;60396;47.550;18.828;2023-04-29T00:22:34;14.30;;;4.25;;
72406;SDS011;60396;47.550;18.828;2023-04-29T00:25:02;15.60;;;4.47;;
72406;SDS011;60396;47.550;18.828;2023-04-29T00:27:30;17.27;;;4.93;;
72406;SDS011;60396;47.550;18.828;2023-04-29T00:29:59;16.17;;;4.40;;
72406;SDS011;60396;47.550;18.828;2023-04-29T00:32:27;14.50;;;4.82;;
72406;SDS011;60396;47.550;18.828;2023-04-29T00:34:55;16.23;;;5.32;;
72406;SDS011;60396;47.550;18.828;2023-04-29T00:37:23;21.48;;;5.22;;
72406;SDS011;60396;47.550;18.828;2023-04-29T00:39:51;12.95;;;4.57;;
72406;SDS011;60396;47.550;18.828;2023-04-29T00:42:19;12.80;;;4.30;;
72406;SDS011;60396;47.550;18.828;2023-04-29T00:44:47;17.02;;;5.15;;
72406;SDS011;60396;47.550;18.828;2023-04-29T00:47:14;14.70;;;4.90;;
72406;SDS011;60396;47.550;18.828;2023-04-29T00:49:42;18.40;;;4.70;;
72406;SDS011;60396;47.550;18.828;2023-04-29T00:52:10;18.98;;;4.97;;
72406;SDS011;60396;47.550;18.828;2023-04-29T00:54:38;17.03;;;5.80;;
72406;SDS011;60396;47.550;18.828;2023-04-29T00:57:06;20.52;;;4.70;;
72406;SDS011;60396;47.550;18.828;2023-04-29T00:59:33;20.62;;;5.95;;
72406;SDS011;60396;47.550;18.828;2023-04-29T01:02:02;20.60;;;5.07;;
72406;SDS011;60396;47.550;18.828;2023-04-29T01:04:30;15.80;;;5.72;;
72406;SDS011;60396;47.550;18.828;2023-04-29T01:07:14;19.23;;;5.27;;
72406;SDS011;60396;47.550;18.828;2023-04-29T01:15:22;14.95;;;5.43;;
72406;SDS011;60396;47.550;18.828;2023-04-29T01:17:56;13.30;;;4.72;;
72406;SDS011;60396;47.550;18.828;2023-04-29T01:20:27;16.70;;;5.60;;
72406;SDS011;60396;47.550;18.828;2023-04-29T01:22:55;14.48;;;5.35;;
72406;SDS011;60396;47.550;18.828;2023-04-29T01:25:23;15.00;;;5.03;;
72406;SDS011;60396;47.550;18.828;2023-04-29T01:28:11;16.20;;;5.20;;
72406;SDS011;60396;47.550;18.828;2023-04-29T01:36:59;16.45;;;4.45;;
72406;SDS011;60396;47.550;18.828;2023-04-29T01:44:40;17.10;;;5.45;;
72406;SDS011;60396;47.550;18.828;2023-04-29T01:47:09;16.67;;;5.90;;
72406;SDS011;60396;47.550;18.828;2023-04-29T01:49:41;22.95;;;6.03;;
72406;SDS011;60396;47.550;18.828;2023-04-29T01:52:09;21.20;;;5.93;;
72406;SDS011;60396;47.550;18.828;2023-04-29T01:54:37;14.43;;;5.72;;
72406;SDS011;60396;47.550;18.828;2023-04-29T01:57:05;17.25;;;5.68;;
72406;SDS011;60396;47.550;18.828;2023-04-29T01:59:33;16.57;;;5.37;;
72406;SDS011;60396;47.550;18.828;2023-04-29T02:02:02;21.00;;;5.70;;
72406;SDS011;60396;47.550;18.828;2023-04-29T02:04:30;19.70;;;5.25;;
72406;SDS011;60396;47.550;18.828;2023-04-29T02:07:01;15.35;;;4.97;;
72406;SDS011;60396;47.550;18.828;2023-04-29T02:09:30;13.68;;;4.78;;
72406;SDS011;60396;47.550;18.828;2023-04-29T02:11:59;16.47;;;5.10;;
72406;SDS011;60396;47.550;18.828;2023-04-29T02:14:29;15.85;;;5.35;;
72406;SDS011;60396;47.550;18.828;2023-04-29T02:16:58;15.95;;;4.32;;
72406;SDS011;60396;47.550;18.828;2023-04-29T02:19:26;14.82;;;5.28;;
72406;SDS011;60396;47.550;18.828;2023-04-29T02:21:54;18.87;;;5.75;;
72406;SDS011;60396;47.550;18.828;2023-04-29T02:24:24;19.30;;;5.50;;
72406;SDS011;60396;47.550;18.828;2023-04-29T02:26:52;15.77;;;5.62;;
72406;SDS011;60396;47.550;18.828;2023-04-29T02:29:20;14.07;;;4.80;;
72406;SDS011;60396;47.550;18.828;2023-04-29T02:31:48;18.20;;;5.35;;
72406;SDS011;60396;47.550;18.828;2023-04-29T02:34:16;14.85;;;5.15;;
72406;SDS011;60396;47.550;18.828;2023-04-29T02:36:44;14.00;;;4.87;;
72406;SDS011;60396;47.550;18.828;2023-04-29T02:39:11;14.23;;;4.87;;
72406;SDS011;60396;47.550;18.828;2023-04-29T02:41:40;16.50;;;4.78;;
72406;SDS011;60396;47.550;18.828;2023-04-29T02:44:10;11.38;;;3.75;;
72406;SDS011;60396;47.550;18.828;2023-04-29T02:46:38;15.65;;;4.32;;
72406;SDS011;60396;47.550;18.828;2023-04-29T02:49:08;17.30;;;5.00;;
72406;SDS011;60396;47.550;18.828;2023-04-29T02:51:36;12.68;;;3.72;;
72406;SDS011;60396;47.550;18.828;2023-04-29T02:54:04;14.68;;;4.18;;
72406;SDS011;60396;47.550;18.828;2023-04-29T02:56:32;16.58;;;4.70;;
72406;SDS011;60396;47.550;18.828;2023-04-29T02:58:59;10.18;;;3.90;;
72406;SDS011;60396;47.550;18.828;2023-04-29T03:01:27;13.73;;;3.83;;
72406;SDS011;60396;47.550;18.828;2023-04-29T03:03:55;9.57;;;4.03;;
72406;SDS011;60396;47.550;18.828;2023-04-29T03:06:23;14.07;;;4.25;;
72406;SDS011;60396;47.550;18.828;2023-04-29T03:08:52;12.82;;;4.30;;
72406;SDS011;60396;47.550;18.828;2023-04-29T03:11:20;9.52;;;3.45;;
72406;SDS011;60396;47.550;18.828;2023-04-29T03:13:50;12.27;;;4.20;;
72406;SDS011;60396;47.550;18.828;2023-04-29T03:16:18;12.80;;;3.62;;
72406;SDS011;60396;47.550;18.828;2023-04-29T03:18:46;11.18;;;3.70;;
72406;SDS011;60396;47.550;18.828;2023-04-29T03:21:14;12.15;;;3.90;;
72406;SDS011;60396;47.550;18.828;2023-04-29T03:23:42;10.80;;;3.25;;
72406;SDS011;60396;47.550;18.828;2023-04-29T03:26:12;10.47;;;3.40;;
72406;SDS011;60396;47.550;18.828;2023-04-29T03:28:40;12.63;;;3.65;;
72406;SDS011;60396;47.550;18.828;2023-04-29T03:31:08;9.65;;;3.45;;
72406;SDS011;60396;47.550;18.828;2023-04-29T03:33:38;9.60;;;3.65;;
72406;SDS011;60396;47.550;18.828;2023-04-29T03:36:06;11.30;;;4.35;;
72406;SDS011;60396;47.550;18.828;2023-04-29T03:38:35;10.30;;;3.17;;
72406;SDS011;60396;47.550;18.828;2023-04-29T03:41:03;11.80;;;3.60;;
72406;SDS011;60396;47.550;18.828;2023-04-29T03:43:31;10.55;;;3.35;;
72406;SDS011;60396;47.550;18.828;2023-04-29T03:45:59;10.02;;;3.85;;
72406;SDS011;60396;47.550;18.828;2023-04-29T03:48:27;12.40;;;3.80;;
72406;SDS011;60396;47.550;18.828;2023-04-29T03:50:55;13.53;;;4.13;;
72406;SDS011;60396;47.550;18.828;2023-04-29T03:53:22;13.15;;;4.20;;
72406;SDS011;60396;47.550;18.828;2023-04-29T03:55:53;10.68;;;3.25;;
72406;SDS011;60396;47.550;18.828;2023-04-29T03:58:20;12.45;;;3.20;;
72406;SDS011;60396;47.550;18.828;2023-04-29T04:00:51;10.45;;;3.50;;
72406;SDS011;60396;47.550;18.828;2023-04-29T04:03:19;12.37;;;3.53;;
72406;SDS011;60396;47.550;18.828;2023-04-29T04:05:49;11.80;;;3.70;;
72406;SDS011;60396;47.550;18.828;2023-04-29T04:08:16;11.35;;;3.80;;
72406;SDS011;60396;47.550;18.828;2023-04-29T04:10:45;12.50;;;4.35;;
72406;SDS011;60396;47.550;18.828;2023-04-29T04:13:13;12.05;;;3.85;;
72406;SDS011;60396;47.550;18.828;2023-04-29T04:15:41;11.93;;;4.13;;
72406;SDS011;60396;47.550;18.828;2023-04-29T04:18:09;13.68;;;3.50;;
72406;SDS011;60396;47.550;18.828;2023-04-29T04:20:41;11.20;;;4.47;;
72406;SDS011;60396;47.550;18.828;2023-04-29T04:23:10;11.50;;;4.32;;
72406;SDS011;60396;47.550;18.828;2023-04-29T04:25:37;13.85;;;4.10;;
72406;SDS011;60396;47.550;18.828;2023-04-29T04:28:06;13.13;;;4.20;;
72406;SDS011;60396;47.550;18.828;2023-04-29T04:30:36;12.93;;;4.07;;
72406;SDS011;60396;47.550;18.828;2023-04-29T04:33:03;10.18;;;3.78;;
72406;SDS011;60396;47.550;18.828;2023-04-29T04:35:35;16.67;;;4.43;;
72406;SDS011;60396;47.550;18.828;2023-04-29T04:38:03;12.13;;;3.75;;
72406;SDS011;60396;47.550;18.828;2023-04-29T04:40:31;11.70;;;4.00;;
72406;SDS011;60396;47.550;18.828;2023-04-29T04:43:00;14.07;;;4.32;;
72406;SDS011;60396;47.550;18.828;2023-04-29T04:45:28;13.15;;;3.62;;
72406;SDS011;60396;47.550;18.828;2023-04-29T04:47:58;13.88;;;3.87;;
72406;SDS011;60396;47.550;18.828;2023-04-29T04:50:27;15.45;;;3.78;;
72406;SDS011;60396;47.550;18.828;2023-04-29T04:52:56;13.23;;;3.73;;
72406;SDS011;60396;47.550;18.828;2023-04-29T04:55:24;9.48;;;3.42;;
72406;SDS011;60396;47.550;18.828;2023-04-29T04:57:52;10.10;;;3.70;;
72406;SDS011;60396;47.550;18.828;2023-04-29T05:00:20;11.95;;;3.78;;
72406;SDS011;60396;47.550;18.828;2023-04-29T05:02:48;9.80;;;3.70;;
72406;SDS011;60396;47.550;18.828;2023-04-29T05:05:16;10.27;;;3.43;;
72406;SDS011;60396;47.550;18.828;2023-04-29T05:07:44;12.60;;;3.58;;
72406;SDS011;60396;47.550;18.828;2023-04-29T05:10:11;12.27;;;3.70;;
72406;SDS011;60396;47.550;18.828;2023-04-29T05:12:40;10.65;;;3.30;;
72406;SDS011;60396;47.550;18.828;2023-04-29T05:15:08;14.73;;;4.00;;
72406;SDS011;60396;47.550;18.828;2023-04-29T05:17:36;12.20;;;3.20;;
72406;SDS011;60396;47.550;18.828;2023-04-29T05:20:04;10.77;;;4.05;;
72406;SDS011;60396;47.550;18.828;2023-04-29T05:22:33;8.73;;;3.85;;
72406;SDS011;60396;47.550;18.828;2023-04-29T05:25:01;12.48;;;3.97;;
72406;SDS011;60396;47.550;18.828;2023-04-29T05:27:30;10.85;;;3.65;;
72406;SDS011;60396;47.550;18.828;2023-04-29T05:29:58;12.50;;;3.83;;
72406;SDS011;60396;47.550;18.828;2023-04-29T05:32:26;10.82;;;4.20;;
72406;SDS011;60396;47.550;18.828;2023-04-29T05:34:53;13.82;;;4.12;;
72406;SDS011;60396;47.550;18.828;2023-04-29T05:37:21;13.50;;;4.15;;
72406;SDS011;60396;47.550;18.828;2023-04-29T05:39:52;13.32;;;4.55;;
72406;SDS011;60396;47.550;18.828;2023-04-29T05:42:20;12.60;;;4.40;;
72406;SDS011;60396;47.550;18.828;2023-04-29T05:44:49;12.20;;;3.95;;
72406;SDS011;60396;47.550;18.828;2023-04-29T05:47:17;15.18;;;4.35;;
72406;SDS011;60396;47.550;18.828;2023-04-29T05:49:45;13.23;;;4.55;;
72406;SDS011;60396;47.550;18.828;2023-04-29T05:52:13;17.48;;;4.57;;
72406;SDS011;60396;47.550;18.828;2023-04-29T05:54:41;10.43;;;3.97;;
72406;SDS011;60396;47.550;18.828;2023-04-29T05:57:09;12.65;;;4.78;;
72406;SDS011;60396;47.550;18.828;2023-04-29T05:59:39;10.63;;;4.10;;
72406;SDS011;60396;47.550;18.828;2023-04-29T06:02:06;10.73;;;4.53;;
72406;SDS011;60396;47.550;18.828;2023-04-29T06:04:35;13.93;;;4.53;;
72406;SDS011;60396;47.550;18.828;2023-04-29T06:07:04;10.30;;;4.07;;
72406;SDS011;60396;47.550;18.828;2023-04-29T06:09:36;12.68;;;4.80;;
72406;SDS011;60396;47.550;18.828;2023-04-29T06:12:04;11.48;;;5.05;;
72406;SDS011;60396;47.550;18.828;2023-04-29T06:14:32;10.93;;;4.12;;
72406;SDS011;60396;47.550;18.828;2023-04-29T06:16:59;11.00;;;4.10;;
72406;SDS011;60396;47.550;18.828;2023-04-29T06:19:27;12.00;;;4.33;;
72406;SDS011;60396;47.550;18.828;2023-04-29T06:21:55;10.73;;;4.32;;
72406;SDS011;60396;47.550;18.828;2023-04-29T06:24:23;11.65;;;4.30;;
72406;SDS011;60396;47.550;18.828;2023-04-29T06:26:51;11.20;;;4.40;;
72406;SDS011;60396;47.550;18.828;2023-04-29T06:29:18;9.93;;;4.25;;
72406;SDS011;60396;47.550;18.828;2023-04-29T06:31:46;12.17;;;4.40;;
72406;SDS011;60396;47.550;18.828;2023-04-29T06:34:14;11.00;;;4.10;;
72406;SDS011;60396;47.550;18.828;2023-04-29T06:36:47;12.50;;;3.72;;
72406;SDS011;60396;47.550;18.828;2023-04-29T06:39:16;13.10;;;4.35;;
72406;SDS011;60396;47.550;18.828;2023-04-29T06:41:45;12.70;;;4.45;;
72406;SDS011;60396;47.550;18.828;2023-04-29T06:44:13;12.20;;;4.50;;
72406;SDS011;60396;47.550;18.828;2023-04-29T06:46:43;11.05;;;4.80;;
72406;SDS011;60396;47.550;18.828;2023-04-29T06:49:14;10.40;;;4.45;;
72406;SDS011;60396;47.550;18.828;2023-04-29T06:51:42;12.35;;;4.85;;
72406;SDS011;60396;47.550;18.828;2023-04-29T06:54:10;12.48;;;4.50;;
72406;SDS011;60396;47.550;18.828;2023-04-29T06:56:37;12.80;;;4.40;;
72406;SDS011;60396;47.550;18.828;2023-04-29T06:59:05;12.43;;;4.45;;
72406;SDS011;60396;47.550;18.828;2023-04-29T07:01:34;9.40;;;3.90;;
72406;SDS011;60396;47.550;18.828;2023-04-29T07:04:03;10.52;;;4.20;;
72406;SDS011;60396;47.550;18.828;2023-04-29T07:06:31;11.98;;;4.55;;
72406;SDS011;60396;47.550;18.828;2023-04-29T07:08:59;12.30;;;3.80;;
72406;SDS011;60396;47.550;18.828;2023-04-29T07:11:27;10.25;;;3.60;;
72406;SDS011;60396;47.550;18.828;2023-04-29T07:13:55;13.10;;;4.05;;
72406;SDS011;60396;47.550;18.828;2023-04-29T07:16:22;11.10;;;3.70;;
72406;SDS011;60396;47.550;18.828;2023-04-29T07:18:52;10.30;;;3.45;;
72406;SDS011;60396;47.550;18.828;2023-04-29T07:21:20;10.40;;;3.20;;
72406;SDS011;60396;47.550;18.828;2023-04-29T07:23:48;9.05;;;2.90;;
72406;SDS011;60396;47.550;18.828;2023-04-29T07:26:16;12.82;;;3.30;;
72406;SDS011;60396;47.550;18.828;2023-04-29T07:28:44;11.93;;;3.35;;
72406;SDS011;60396;47.550;18.828;2023-04-29T07:31:12;8.52;;;3.67;;
72406;SDS011;60396;47.550;18.828;2023-04-29T07:33:40;9.37;;;3.30;;
72406;SDS011;60396;47.550;18.828;2023-04-29T07:36:09;8.63;;;3.22;;
72406;SDS011;60396;47.550;18.828;2023-04-29T07:38:37;8.13;;;3.00;;
72406;SDS011;60396;47.550;18.828;2023-04-29T07:41:05;7.65;;;3.30;;
72406;SDS011;60396;47.550;18.828;2023-04-29T07:43:33;10.30;;;3.12;;
72406;SDS011;60396;47.550;18.828;2023-04-29T07:46:01;9.60;;;3.23;;
72406;SDS011;60396;47.550;18.828;2023-04-29T07:48:28;8.68;;;3.35;;
72406;SDS011;60396;47.550;18.828;2023-04-29T07:50:56;8.48;;;2.85;;
72406;SDS011;60396;47.550;18.828;2023-04-29T07:53:25;9.73;;;3.00;;
72406;SDS011;60396;47.550;18.828;2023-04-29T07:55:53;8.52;;;3.30;;
72406;SDS011;60396;47.550;18.828;2023-04-29T07:58:21;10.07;;;3.20;;
72406;SDS011;60396;47.550;18.828;2023-04-29T08:00:49;10.50;;;3.87;;
72406;SDS011;60396;47.550;18.828;2023-04-29T08:03:17;9.68;;;3.50;;
72406;SDS011;60396;47.550;18.828;2023-04-29T08:05:45;8.40;;;3.42;;
72406;SDS011;60396;47.550;18.828;2023-04-29T08:08:15;11.48;;;3.75;;
72406;SDS011;60396;47.550;18.828;2023-04-29T08:10:43;8.97;;;3.73;;
72406;SDS011;60396;47.550;18.828;2023-04-29T08:13:11;15.30;;;4.20;;
72406;SDS011;60396;47.550;18.828;2023-04-29T08:15:38;9.80;;;3.67;;
72406;SDS011;60396;47.550;18.828;2023-04-29T08:18:06;10.10;;;3.75;;
72406;SDS011;60396;47.550;18.828;2023-04-29T08:20:34;7.95;;;3.85;;
72406;SDS011;60396;47.550;18.828;2023-04-29T08:23:02;8.57;;;3.87;;
72406;SDS011;60396;47.550;18.828;2023-04-29T08:25:30;11.75;;;4.05;;
72406;SDS011;60396;47.550;18.828;2023-04-29T08:27:57;8.18;;;3.58;;
72406;SDS011;60396;47.550;18.828;2023-04-29T08:30:26;14.50;;;4.03;;
72406;SDS011;60396;47.550;18.828;2023-04-29T08:32:54;9.65;;;3.97;;
72406;SDS011;60396;47.550;18.828;2023-04-29T08:35:22;11.07;;;3.73;;
72406;SDS011;60396;47.550;18.828;2023-04-29T08:37:51;11.93;;;3.87;;
72406;SDS011;60396;47.550;18.828;2023-04-29T08:40:19;12.73;;;4.10;;
72406;SDS011;60396;47.550;18.828;2023-04-29T08:42:48;10.30;;;3.80;;
72406;SDS011;60396;47.550;18.828;2023-04-29T08:45:16;10.52;;;3.47;;
72406;SDS011;60396;47.550;18.828;2023-04-29T08:47:46;10.83;;;3.80;;
72406;SDS011;60396;47.550;18.828;2023-04-29T08:50:15;12.02;;;3.92;;
72406;SDS011;60396;47.550;18.828;2023-04-29T08:52:44;12.20;;;3.85;;
72406;SDS011;60396;47.550;18.828;2023-04-29T08:55:12;10.32;;;3.50;;
72406;SDS011;60396;47.550;18.828;2023-04-29T08:57:39;8.77;;;3.30;;
72406;SDS011;60396;47.550;18.828;2023-04-29T09:00:08;8.33;;;3.17;;
72406;SDS011;60396;47.550;18.828;2023-04-29T09:02:42;11.77;;;3.40;;
72406;SDS011;60396;47.550;18.828;2023-04-29T09:05:15;8.02;;;3.22;;
72406;SDS011;60396;47.550;18.828;2023-04-29T09:07:43;13.07;;;4.50;;
72406;SDS011;60396;47.550;18.828;2023-04-29T09:10:10;9.05;;;3.87;;
72406;SDS011;60396;47.550;18.828;2023-04-29T09:12:39;11.77;;;4.20;;
72406;SDS011;60396;47.550;18.828;2023-04-29T09:15:07;10.20;;;4.20;;
72406;SDS011;60396;47.550;18.828;2023-04-29T09:17:45;10.57;;;4.22;;
72406;SDS011;60396;47.550;18.828;2023-04-29T09:22:52;10.43;;;3.97;;
72406;SDS011;60396;47.550;18.828;2023-04-29T09:25:21;10.13;;;4.13;;
72406;SDS011;60396;47.550;18.828;2023-04-29T09:27:49;10.85;;;3.92;;
72406;SDS011;60396;47.550;18.828;2023-04-29T09:30:17;12.40;;;3.78;;
72406;SDS011;60396;47.550;18.828;2023-04-29T09:33:01;9.80;;;3.60;;
72406;SDS011;60396;47.550;18.828;2023-04-29T09:35:31;9.50;;;4.50;;
72406;SDS011;60396;47.550;18.828;2023-04-29T09:38:09;13.40;;;4.30;;
72406;SDS011;60396;47.550;18.828;2023-04-29T09:40:41;10.75;;;3.80;;
72406;SDS011;60396;47.550;18.828;2023-04-29T09:43:25;8.82;;;3.22;;
72406;SDS011;60396;47.550;18.828;2023-04-29T09:45:53;10.65;;;3.50;;
72406;SDS011;60396;47.550;18.828;2023-04-29T09:48:20;10.65;;;4.00;;
72406;SDS011;60396;47.550;18.828;2023-04-29T09:50:58;10.40;;;4.00;;
72406;SDS011;60396;47.550;18.828;2023-04-29T09:53:28;9.05;;;4.00;;
72406;SDS011;60396;47.550;18.828;2023-04-29T09:55:57;11.15;;;3.55;;
72406;SDS011;60396;47.550;18.828;2023-04-29T09:58:26;8.65;;;3.62;;
72406;SDS011;60396;47.550;18.828;2023-04-29T10:01:07;9.68;;;3.80;;
72406;SDS011;60396;47.550;18.828;2023-04-29T10:03:35;9.67;;;3.53;;
72406;SDS011;60396;47.550;18.828;2023-04-29T10:06:05;10.57;;;3.28;;
72406;SDS011;60396;47.550;18.828;2023-04-29T10:08:34;8.88;;;3.58;;
72406;SDS011;60396;47.550;18.828;2023-04-29T10:11:02;9.55;;;3.75;;
72406;SDS011;60396;47.550;18.828;2023-04-29T10:13:30;9.02;;;3.85;;
72406;SDS011;60396;47.550;18.828;2023-04-29T10:18:59;10.13;;;3.67;;
72406;SDS011;60396;47.550;18.828;2023-04-29T10:21:30;10.90;;;4.15;;
72406;SDS011;60396;47.550;18.828;2023-04-29T10:23:58;11.40;;;3.97;;
72406;SDS011;60396;47.550;18.828;2023-04-29T10:26:28;11.55;;;3.80;;
72406;SDS011;60396;47.550;18.828;2023-04-29T10:28:57;8.07;;;3.53;;
72406;SDS011;60396;47.550;18.828;2023-04-29T10:31:26;12.93;;;3.72;;
72406;SDS011;60396;47.550;18.828;2023-04-29T10:33:55;10.35;;;3.83;;
72406;SDS011;60396;47.550;18.828;2023-04-29T10:36:24;10.80;;;4.30;;
72406;SDS011;60396;47.550;18.828;2023-04-29T10:38:53;9.25;;;3.30;;
72406;SDS011;60396;47.550;18.828;2023-04-29T10:41:24;9.83;;;3.53;;
72406;SDS011;60396;47.550;18.828;2023-04-29T10:43:54;9.30;;;3.40;;
72406;SDS011;60396;47.550;18.828;2023-04-29T10:46:23;10.30;;;3.65;;
72406;SDS011;60396;47.550;18.828;2023-04-29T10:49:02;9.65;;;3.83;;
72406;SDS011;60396;47.550;18.828;2023-04-29T10:51:31;10.43;;;3.83;;
72406;SDS011;60396;47.550;18.828;2023-04-29T10:54:20;11.63;;;4.20;;
72406;SDS011;60396;47.550;18.828;2023-04-29T10:56:52;12.13;;;4.22;;
72406;SDS011;60396;47.550;18.828;2023-04-29T11:02:08;8.45;;;3.70;;
72406;SDS011;60396;47.550;18.828;2023-04-29T11:05:05;9.65;;;3.83;;
72406;SDS011;60396;47.550;18.828;2023-04-29T11:07:34;12.50;;;4.27;;
72406;SDS011;60396;47.550;18.828;2023-04-29T11:10:02;13.10;;;4.40;;
72406;SDS011;60396;47.550;18.828;2023-04-29T11:12:30;11.65;;;4.18;;
72406;SDS011;60396;47.550;18.828;2023-04-29T11:14:58;9.32;;;4.18;;
72406;SDS011;60396;47.550;18.828;2023-04-29T11:17:36;10.63;;;3.62;;
72406;SDS011;60396;47.550;18.828;2023-04-29T11:20:08;10.57;;;4.97;;
72406;SDS011;60396;47.550;18.828;2023-04-29T11:22:37;11.12;;;4.60;;
72406;SDS011;60396;47.550;18.828;2023-04-29T11:25:08;8.57;;;4.03;;
72406;SDS011;60396;47.550;18.828;2023-04-29T11:27:38;11.20;;;3.95;;
72406;SDS011;60396;47.550;18.828;2023-04-29T11:30:07;9.73;;;3.97;;
72406;SDS011;60396;47.550;18.828;2023-04-29T11:32:36;12.87;;;4.00;;
72406;SDS011;60396;47.550;18.828;2023-04-29T11:35:10;10.82;;;3.72;;
72406;SDS011;60396;47.550;18.828;2023-04-29T11:37:43;9.95;;;3.55;;
72406;SDS011;60396;47.550;18.828;2023-04-29T11:40:13;10.35;;;4.28;;
72406;SDS011;60396;47.550;18.828;2023-04-29T11:42:45;8.63;;;3.62;;
72406;SDS011;60396;47.550;18.828;2023-04-29T11:45:15;11.70;;;3.57;;
72406;SDS011;60396;47.550;18.828;2023-04-29T11:47:44;10.35;;;4.03;;
72406;SDS011;60396;47.550;18.828;2023-04-29T11:50:14;13.02;;;4.35;;
72406;SDS011;60396;47.550;18.828;2023-04-29T11:52:47;12.25;;;3.62;;
72406;SDS011;60396;47.550;18.828;2023-04-29T11:55:16;9.10;;;3.78;;
72406;SDS011;60396;47.550;18.828;2023-04-29T11:57:48;9.03;;;3.63;;
72406;SDS011;60396;47.550;18.828;2023-04-29T12:00:17;11.30;;;3.80;;
72406;SDS011;60396;47.550;18.828;2023-04-29T12:02:45;8.13;;;3.40;;
72406;SDS011;60396;47.550;18.828;2023-04-29T12:05:17;7.80;;;3.25;;
72406;SDS011;60396;47.550;18.828;2023-04-29T12:07:47;8.52;;;3.65;;
72406;SDS011;60396;47.550;18.828;2023-04-29T12:10:16;8.90;;;3.40;;
72406;SDS011;60396;47.550;18.828;2023-04-29T12:12:44;8.25;;;3.53;;
72406;SDS011;60396;47.550;18.828;2023-04-29T12:15:13;7.55;;;3.10;;
72406;SDS011;60396;47.550;18.828;2023-04-29T12:17:41;8.15;;;3.20;;
72406;SDS011;60396;47.550;18.828;2023-04-29T12:20:09;11.10;;;3.42;;
72406;SDS011;60396;47.550;18.828;2023-04-29T12:22:38;10.40;;;3.57;;
72406;SDS011;60396;47.550;18.828;2023-04-29T12:25:06;7.87;;;3.45;;
72406;SDS011;60396;47.550;18.828;2023-04-29T12:27:34;8.07;;;3.10;;
72406;SDS011;60396;47.550;18.828;2023-04-29T12:30:07;9.05;;;3.65;;
72406;SDS011;60396;47.550;18.828;2023-04-29T12:32:39;10.70;;;3.42;;
72406;SDS011;60396;47.550;18.828;2023-04-29T12:35:13;13.60;;;3.57;;
72406;SDS011;60396;47.550;18.828;2023-04-29T12:37:46;8.43;;;3.50;;
72406;SDS011;60396;47.550;18.828;2023-04-29T12:40:14;9.32;;;3.83;;
72406;SDS011;60396;47.550;18.828;2023-04-29T12:42:42;7.20;;;2.35;;
72406;SDS011;60396;47.550;18.828;2023-04-29T12:45:32;14.85;;;3.10;;
72406;SDS011;60396;47.550;18.828;2023-04-29T12:48:01;6.93;;;2.80;;
72406;SDS011;60396;47.550;18.828;2023-04-29T12:50:36;12.13;;;3.28;;
72406;SDS011;60396;47.550;18.828;2023-04-29T12:53:05;8.73;;;3.60;;
72406;SDS011;60396;47.550;18.828;2023-04-29T12:55:34;9.98;;;3.00;;
72406;SDS011;60396;47.550;18.828;2023-04-29T12:58:03;8.18;;;3.60;;
72406;SDS011;60396;47.550;18.828;2023-04-29T13:00:32;8.83;;;3.50;;
72406;SDS011;60396;47.550;18.828;2023-04-29T13:03:01;12.35;;;3.45;;
72406;SDS011;60396;47.550;18.828;2023-04-29T13:05:30;8.15;;;3.15;;
72406;SDS011;60396;47.550;18.828;2023-04-29T13:07:57;10.70;;;3.65;;
72406;SDS011;60396;47.550;18.828;2023-04-29T13:10:25;11.75;;;3.42;;
72406;SDS011;60396;47.550;18.828;2023-04-29T13:12:54;10.03;;;3.43;;
72406;SDS011;60396;47.550;18.828;2023-04-29T13:15:24;7.40;;;2.87;;
72406;SDS011;60396;47.550;18.828;2023-04-29T13:17:52;10.90;;;3.20;;
72406;SDS011;60396;47.550;18.828;2023-04-29T13:20:20;7.25;;;3.17;;
72406;SDS011;60396;47.550;18.828;2023-04-29T13:22:48;7.80;;;3.20;;
72406;SDS011;60396;47.550;18.828;2023-04-29T13:25:16;12.93;;;2.97;;
72406;SDS011;60396;47.550;18.828;2023-04-29T13:27:44;8.98;;;3.50;;
72406;SDS011;60396;47.550;18.828;2023-04-29T13:30:12;7.18;;;2.70;;
72406;SDS011;60396;47.550;18.828;2023-04-29T13:32:40;9.57;;;2.85;;
72406;SDS011;60396;47.550;18.828;2023-04-29T13:35:17;9.18;;;2.85;;
72406;SDS011;60396;47.550;18.828;2023-04-29T13:37:45;9.77;;;3.20;;
72406;SDS011;60396;47.550;18.828;2023-04-29T13:40:14;12.60;;;3.87;;
72406;SDS011;60396;47.550;18.828;2023-04-29T13:42:48;9.43;;;3.33;;
72406;SDS011;60396;47.550;18.828;2023-04-29T13:45:25;10.68;;;3.80;;
72406;SDS011;60396;47.550;18.828;2023-04-29T13:47:55;10.98;;;2.90;;
72406;SDS011;60396;47.550;18.828;2023-04-29T13:50:43;7.37;;;3.17;;
72406;SDS011;60396;47.550;18.828;2023-04-29T13:53:14;9.57;;;3.30;;
72406;SDS011;60396;47.550;18.828;2023-04-29T13:55:46;8.77;;;3.20;;
72406;SDS011;60396;47.550;18.828;2023-04-29T13:58:17;8.40;;;3.50;;
72406;SDS011;60396;47.550;18.828;2023-04-29T14:00:47;9.52;;;3.25;;
72406;SDS011;60396;47.550;18.828;2023-04-29T14:03:18;10.13;;;3.93;;
72406;SDS011;60396;47.550;18.828;2023-04-29T14:05:46;8.20;;;3.00;;
72406;SDS011;60396;47.550;18.828;2023-04-29T14:08:15;9.05;;;3.40;;
72406;SDS011;60396;47.550;18.828;2023-04-29T14:10:42;8.32;;;3.10;;
72406;SDS011;60396;47.550;18.828;2023-04-29T14:13:10;5.95;;;2.78;;
72406;SDS011;60396;47.550;18.828;2023-04-29T14:15:38;7.13;;;3.50;;
72406;SDS011;60396;47.550;18.828;2023-04-29T14:18:05;9.38;;;3.10;;
72406;SDS011;60396;47.550;18.828;2023-04-29T14:20:35;8.20;;;2.80;;
72406;SDS011;60396;47.550;18.828;2023-04-29T14:23:03;7.68;;;2.90;;
72406;SDS011;60396;47.550;18.828;2023-04-29T14:25:31;10.05;;;2.90;;
72406;SDS011;60396;47.550;18.828;2023-04-29T14:28:00;7.50;;;3.03;;
72406;SDS011;60396;47.550;18.828;2023-04-29T14:30:27;6.95;;;2.30;;
72406;SDS011;60396;47.550;18.828;2023-04-29T14:32:55;8.43;;;2.80;;
72406;SDS011;60396;47.550;18.828;2023-04-29T14:35:24;7.80;;;3.03;;
72406;SDS011;60396;47.550;18.828;2023-04-29T14:37:51;8.32;;;3.00;;
72406;SDS011;60396;47.550;18.828;2023-04-29T14:40:19;8.93;;;3.13;;
72406;SDS011;60396;47.550;18.828;2023-04-29T14:42:47;7.12;;;2.97;;
72406;SDS011;60396;47.550;18.828;2023-04-29T14:45:15;7.32;;;2.92;;
72406;SDS011;60396;47.550;18.828;2023-04-29T14:47:43;9.52;;;2.60;;
72406;SDS011;60396;47.550;18.828;2023-04-29T14:50:11;7.95;;;2.85;;
72406;SDS011;60396;47.550;18.828;2023-04-29T14:52:39;9.83;;;3.40;;
72406;SDS011;60396;47.550;18.828;2023-04-29T14:55:07;7.40;;;3.53;;
72406;SDS011;60396;47.550;18.828;2023-04-29T14:57:35;12.02;;;3.17;;
72406;SDS011;60396;47.550;18.828;2023-04-29T15:00:03;8.73;;;3.22;;
72406;SDS011;60396;47.550;18.828;2023-04-29T15:02:31;8.65;;;3.20;;